createdAt,value
2022-10-13T00:01:11.498Z,0.90
2022-10-13T00:03:40.304Z,1.10
2022-10-13T00:06:09.456Z,0.60
2022-10-13T00:08:37.751Z,0.60
2022-10-13T00:11:17.813Z,1.00
2022-10-13T00:13:45.734Z,0.93
2022-10-13T00:16:14.975Z,0.90
2022-10-13T00:18:42.878Z,0.60
2022-10-13T00:21:12.631Z,0.95
2022-10-13T00:23:40.475Z,0.95
2022-10-13T00:26:11.527Z,0.88
2022-10-13T00:28:39.369Z,0.82
2022-10-13T00:31:26.098Z,1.10
2022-10-13T00:33:53.284Z,0.70
2022-10-13T00:36:21.848Z,0.85
2022-10-13T00:38:49.008Z,0.50
2022-10-13T00:41:17.329Z,1.00
2022-10-13T00:43:58.619Z,0.70
2022-10-13T00:46:29.521Z,0.70
2022-10-13T00:49:02.461Z,0.80
2022-10-13T00:51:32.856Z,0.93
2022-10-13T00:54:01.542Z,0.82
2022-10-13T00:56:29.579Z,0.60
2022-10-13T00:58:57.256Z,1.05
2022-10-13T01:01:24.472Z,0.60
2022-10-13T01:03:51.663Z,0.80
2022-10-13T01:06:23.492Z,1.10
2022-10-13T01:08:51.154Z,0.73
2022-10-13T01:11:27.417Z,1.17
2022-10-13T01:14:10.470Z,0.90
2022-10-13T01:16:42.766Z,0.85
2022-10-13T01:19:28.365Z,0.88
2022-10-13T01:22:17.148Z,1.25
2022-10-13T01:24:55.005Z,0.88
2022-10-13T01:27:50.000Z,0.93
2022-10-13T01:30:22.836Z,1.10
2022-10-13T01:33:25.351Z,0.82
2022-10-13T01:36:25.764Z,0.90
2022-10-13T01:39:05.776Z,0.90
2022-10-13T01:41:41.852Z,0.70
2022-10-13T01:44:45.113Z,1.42
2022-10-13T01:47:15.409Z,0.50
2022-10-13T01:49:45.308Z,0.77
2022-10-13T01:52:19.195Z,0.88
2022-10-13T01:54:52.166Z,1.02
2022-10-13T01:57:35.913Z,0.90
2022-10-13T02:00:09.999Z,0.50
2022-10-13T02:02:45.718Z,0.63
2022-10-13T02:05:27.702Z,0.60
2022-10-13T02:08:23.789Z,0.93
2022-10-13T02:13:29.549Z,0.93
2022-10-13T02:16:00.046Z,0.65
2022-10-13T02:18:31.788Z,0.98
2022-10-13T02:21:00.790Z,0.75
2022-10-13T02:23:28.948Z,0.77
2022-10-13T02:25:57.441Z,2.50
2022-10-13T02:28:24.660Z,0.90
2022-10-13T02:30:51.961Z,1.00
2022-10-13T02:33:19.199Z,0.75
2022-10-13T02:35:46.300Z,0.70
2022-10-13T02:38:13.361Z,0.70
2022-10-13T02:40:41.511Z,0.88
2022-10-13T02:43:08.646Z,0.70
2022-10-13T02:45:35.773Z,0.85
2022-10-13T02:48:03.064Z,0.63
2022-10-13T02:50:30.256Z,1.13
2022-10-13T02:52:59.248Z,0.90
2022-10-13T02:55:26.577Z,1.20
2022-10-13T02:57:56.731Z,0.68
2022-10-13T03:00:23.946Z,0.80
2022-10-13T03:02:50.976Z,0.80
2022-10-13T03:05:18.352Z,1.98
2022-10-13T03:07:45.346Z,0.70
2022-10-13T03:10:12.458Z,0.57
2022-10-13T03:12:39.540Z,0.80
2022-10-13T03:15:07.131Z,0.70
2022-10-13T03:17:34.226Z,1.02
2022-10-13T03:20:01.355Z,1.10
2022-10-13T03:22:28.633Z,0.90
2022-10-13T03:24:55.679Z,0.70
2022-10-13T03:27:22.879Z,0.75
2022-10-13T03:29:49.991Z,0.73
2022-10-13T03:32:17.417Z,1.02
2022-10-13T03:34:44.639Z,1.00
2022-10-13T03:37:11.725Z,1.08
2022-10-13T03:39:42.134Z,0.60
2022-10-13T03:42:12.234Z,1.45
2022-10-13T03:44:39.501Z,1.00
2022-10-13T03:47:07.104Z,0.93
2022-10-13T03:49:34.215Z,0.80
2022-10-13T03:52:01.278Z,0.90
2022-10-13T03:54:28.514Z,0.73
2022-10-13T03:56:57.647Z,0.80
2022-10-13T03:59:24.709Z,0.95
2022-10-13T04:01:51.833Z,0.70
2022-10-13T04:04:19.105Z,1.25
2022-10-13T04:06:50.563Z,0.70
2022-10-13T04:09:17.801Z,0.70
2022-10-13T04:11:44.958Z,1.20
2022-10-13T04:14:12.028Z,0.90
2022-10-13T04:16:40.540Z,0.80
2022-10-13T04:19:08.045Z,0.65
2022-10-13T04:21:35.741Z,0.73
2022-10-13T04:24:04.282Z,0.77
2022-10-13T04:26:33.530Z,0.70
2022-10-13T04:31:35.718Z,0.63
2022-10-13T04:34:02.968Z,0.73
2022-10-13T04:36:30.519Z,0.73
2022-10-13T04:38:57.854Z,0.60
2022-10-13T04:41:26.079Z,0.65
2022-10-13T04:43:54.286Z,0.90
2022-10-13T04:46:26.758Z,1.23
2022-10-13T04:48:58.140Z,0.70
2022-10-13T04:51:32.717Z,0.63
2022-10-13T04:54:01.264Z,0.95
2022-10-13T04:56:29.119Z,0.82
2022-10-13T04:59:01.767Z,0.75
2022-10-13T05:01:28.877Z,0.82
2022-10-13T05:03:58.798Z,1.00
2022-10-13T05:06:28.988Z,1.00
2022-10-13T05:08:56.778Z,1.00
2022-10-13T05:11:26.694Z,0.60
2022-10-13T05:13:54.657Z,0.77
2022-10-13T05:16:23.040Z,0.85
2022-10-13T05:18:51.652Z,0.82
2022-10-13T05:21:26.541Z,0.75
2022-10-13T05:23:55.785Z,1.23
2022-10-13T05:26:28.728Z,1.13
2022-10-13T05:28:57.249Z,0.93
2022-10-13T05:31:27.298Z,0.77
2022-10-13T05:33:57.089Z,1.00
2022-10-13T05:36:32.863Z,0.80
2022-10-13T05:39:05.199Z,1.10
2022-10-13T05:41:32.458Z,1.20
2022-10-13T05:44:02.438Z,2.60
2022-10-13T05:46:29.669Z,0.50
2022-10-13T05:48:56.978Z,0.60
2022-10-13T05:51:28.238Z,0.85
2022-10-13T05:54:02.472Z,0.70
2022-10-13T05:56:33.455Z,0.70
2022-10-13T05:59:04.778Z,0.77
2022-10-13T06:01:34.496Z,0.80
2022-10-13T06:04:06.223Z,0.88
2022-10-13T06:06:33.599Z,0.82
2022-10-13T06:09:01.650Z,0.68
2022-10-13T06:11:28.865Z,0.63
2022-10-13T06:13:55.945Z,0.65
2022-10-13T06:16:23.042Z,0.77
2022-10-13T06:18:50.200Z,0.77
2022-10-13T06:21:17.486Z,1.00
2022-10-13T06:23:44.538Z,1.25
2022-10-13T06:26:11.804Z,1.05
2022-10-13T06:28:38.910Z,0.93
2022-10-13T06:31:06.918Z,1.02
2022-10-13T06:33:35.089Z,0.80
2022-10-13T06:36:04.495Z,1.25
2022-10-13T06:38:32.288Z,1.33
2022-10-13T06:41:04.235Z,0.85
2022-10-13T06:43:38.881Z,0.80
2022-10-13T06:46:10.411Z,0.80
2022-10-13T06:48:38.132Z,1.05
2022-10-13T06:51:07.520Z,0.88
2022-10-13T06:53:34.647Z,1.30
2022-10-13T06:56:03.932Z,1.45
2022-10-13T06:58:31.157Z,1.10
2022-10-13T07:00:58.433Z,1.05
2022-10-13T07:03:26.148Z,1.15
2022-10-13T07:05:53.772Z,0.90
2022-10-13T07:08:21.348Z,0.95
2022-10-13T07:10:48.928Z,1.25
2022-10-13T07:13:16.069Z,1.10
2022-10-13T07:15:43.153Z,1.58
2022-10-13T07:18:10.352Z,1.02
2022-10-13T07:20:37.578Z,1.05
2022-10-13T07:23:04.679Z,0.70
2022-10-13T07:25:31.773Z,1.25
2022-10-13T07:27:59.687Z,1.27
2022-10-13T07:30:27.091Z,0.77
2022-10-13T07:32:54.286Z,0.93
2022-10-13T07:35:25.845Z,1.00
2022-10-13T07:40:24.058Z,0.63
2022-10-13T07:42:51.457Z,0.50
2022-10-13T07:45:18.887Z,0.57
2022-10-13T07:47:45.989Z,0.70
2022-10-13T07:50:13.224Z,0.63
2022-10-13T07:52:40.370Z,0.50
2022-10-13T07:55:10.649Z,0.45
2022-10-13T07:57:38.573Z,0.55
2022-10-13T08:00:06.825Z,0.63
2022-10-13T08:02:39.531Z,0.57
2022-10-13T08:05:07.749Z,0.82
2022-10-13T08:07:34.890Z,0.93
2022-10-13T08:10:02.299Z,0.75
2022-10-13T08:12:29.330Z,0.80
2022-10-13T08:14:58.474Z,1.40
2022-10-13T08:17:27.812Z,1.23
2022-10-13T08:19:55.405Z,1.38
2022-10-13T08:22:28.385Z,1.30
2022-10-13T08:24:56.186Z,2.05
2022-10-13T08:27:37.082Z,1.00
2022-10-13T08:30:12.646Z,1.25
2022-10-13T08:32:39.734Z,1.70
2022-10-13T08:35:07.152Z,1.65
2022-10-13T08:37:34.806Z,1.27
2022-10-13T08:40:02.106Z,1.20
2022-10-13T08:42:29.420Z,0.63
2022-10-13T08:48:15.717Z,0.68
2022-10-13T08:50:46.033Z,1.08
2022-10-13T08:53:13.110Z,0.60
2022-10-13T08:55:49.597Z,0.32
2022-10-13T08:58:24.603Z,0.40
2022-10-13T09:01:16.237Z,0.50
2022-10-13T09:03:55.300Z,0.38
2022-10-13T09:06:39.744Z,0.45
2022-10-13T09:09:11.869Z,0.73
2022-10-13T09:11:42.979Z,0.50
2022-10-13T09:14:23.090Z,0.50
2022-10-13T09:16:52.078Z,0.30
2022-10-13T09:19:34.143Z,0.30
2022-10-13T09:22:24.950Z,0.47
2022-10-13T09:25:06.917Z,0.60
2022-10-13T09:27:52.426Z,0.60
2022-10-13T09:30:26.217Z,0.40
2022-10-13T09:33:17.186Z,0.57
2022-10-13T09:36:11.134Z,0.47
2022-10-13T09:38:39.808Z,0.40
2022-10-13T09:41:09.575Z,0.40
2022-10-13T09:43:42.228Z,0.32
2022-10-13T09:46:38.641Z,0.30
2022-10-13T09:49:28.198Z,0.40
2022-10-13T09:52:04.309Z,0.40
2022-10-13T09:54:47.567Z,0.50
2022-10-13T09:57:26.907Z,0.57
2022-10-13T10:00:14.890Z,0.50
2022-10-13T10:03:03.299Z,0.93
2022-10-13T10:05:56.474Z,1.55
2022-10-13T10:09:02.155Z,3.65
2022-10-13T10:11:43.438Z,4.05
2022-10-13T10:14:26.998Z,3.53
2022-10-13T10:17:15.252Z,2.92
2022-10-13T10:19:48.846Z,3.92
2022-10-13T10:22:21.753Z,4.88
2022-10-13T10:25:02.898Z,3.80
2022-10-13T10:27:43.761Z,4.65
2022-10-13T10:30:20.935Z,5.35
2022-10-13T10:33:19.061Z,4.45
2022-10-13T10:36:02.732Z,4.05
2022-10-13T10:38:32.897Z,3.38
2022-10-13T10:41:26.083Z,3.13
2022-10-13T10:44:19.203Z,3.20
2022-10-13T10:46:49.169Z,2.70
2022-10-13T10:49:28.457Z,2.17
2022-10-13T10:51:55.798Z,2.72
2022-10-13T10:54:31.871Z,1.90
2022-10-13T10:57:22.751Z,2.25
2022-10-13T10:59:54.758Z,1.88
2022-10-13T11:02:47.780Z,2.00
2022-10-13T11:05:16.592Z,1.70
2022-10-13T11:07:43.568Z,1.38
2022-10-13T11:10:13.753Z,1.33
2022-10-13T11:12:53.130Z,1.52
2022-10-13T11:15:31.264Z,1.42
2022-10-13T11:17:58.808Z,1.20
2022-10-13T11:20:35.198Z,1.25
2022-10-13T11:23:05.449Z,1.10
2022-10-13T11:25:41.220Z,1.83
2022-10-13T11:28:23.795Z,1.42
2022-10-13T11:30:57.519Z,0.77
2022-10-13T11:34:01.881Z,0.80
2022-10-13T11:36:51.750Z,1.02
2022-10-13T11:39:28.276Z,1.48
2022-10-13T11:42:10.810Z,0.90
2022-10-13T11:45:13.582Z,0.73
2022-10-13T11:48:12.861Z,0.90
2022-10-13T11:50:59.432Z,0.88
2022-10-13T11:53:54.628Z,0.77
2022-10-13T11:56:33.293Z,0.67
2022-10-13T11:59:00.390Z,0.60
2022-10-13T12:01:27.862Z,1.00
2022-10-13T12:03:55.094Z,0.80
2022-10-13T12:06:34.338Z,0.90
2022-10-13T12:09:17.553Z,0.60
2022-10-13T12:11:45.503Z,0.60
2022-10-13T12:14:27.590Z,0.70
2022-10-13T12:16:59.329Z,0.90
2022-10-13T12:19:29.762Z,0.60
2022-10-13T12:22:00.305Z,0.60
2022-10-13T12:24:29.793Z,1.08
2022-10-13T12:26:58.884Z,0.93
2022-10-13T12:29:34.877Z,0.65
2022-10-13T12:32:19.433Z,0.80
2022-10-13T12:34:47.722Z,0.70
2022-10-13T12:37:31.107Z,1.05
2022-10-13T12:39:59.367Z,0.73
2022-10-13T12:42:35.488Z,0.80
2022-10-13T12:45:03.739Z,1.15
2022-10-13T12:47:40.224Z,1.02
2022-10-13T12:50:22.812Z,0.82
2022-10-13T12:52:52.488Z,0.50
2022-10-13T12:55:22.171Z,0.70
2022-10-13T12:57:51.268Z,0.68
2022-10-13T13:00:26.680Z,0.68
2022-10-13T13:03:06.304Z,0.95
2022-10-13T13:05:41.090Z,0.47
2022-10-13T13:08:27.923Z,0.93
2022-10-13T13:10:56.805Z,1.48
2022-10-13T13:13:24.932Z,0.80
2022-10-13T13:15:52.982Z,1.60
2022-10-13T13:18:41.917Z,0.63
2022-10-13T13:21:13.196Z,0.80
2022-10-13T13:23:49.602Z,1.33
2022-10-13T13:26:22.949Z,0.65
2022-10-13T13:28:54.900Z,0.98
2022-10-13T13:31:26.381Z,0.80
2022-10-13T13:33:54.749Z,1.02
2022-10-13T13:36:24.661Z,0.80
2022-10-13T13:38:53.177Z,1.10
2022-10-13T13:41:20.501Z,1.00
2022-10-13T13:43:47.877Z,1.27
2022-10-13T13:46:18.307Z,1.02
2022-10-13T13:48:45.531Z,1.33
2022-10-13T13:51:12.552Z,0.93
2022-10-13T13:53:40.451Z,1.00
2022-10-13T13:56:13.500Z,1.00
2022-10-13T13:58:40.675Z,1.00
2022-10-13T14:01:07.841Z,1.02
2022-10-13T14:03:35.307Z,1.40
2022-10-13T14:06:04.863Z,0.93
2022-10-13T14:08:42.491Z,0.90
2022-10-13T14:11:10.895Z,1.00
2022-10-13T14:13:37.976Z,1.00
2022-10-13T14:16:05.909Z,0.90
2022-10-13T14:18:33.073Z,1.17
2022-10-13T14:21:00.387Z,0.80
2022-10-13T14:23:27.651Z,0.80
2022-10-13T14:25:55.079Z,1.48
2022-10-13T14:28:22.938Z,1.40
2022-10-13T14:30:50.162Z,1.63
2022-10-13T14:33:19.615Z,1.77
2022-10-13T14:35:47.167Z,2.10
2022-10-13T14:38:16.568Z,1.77
2022-10-13T14:40:44.667Z,2.17
2022-10-13T14:43:11.705Z,1.70
2022-10-13T14:45:38.850Z,1.65
2022-10-13T14:48:06.278Z,3.25
2022-10-13T14:50:34.415Z,2.00
2022-10-13T14:53:01.443Z,1.95
2022-10-13T14:55:29.046Z,2.17
2022-10-13T14:57:56.118Z,2.05
2022-10-13T15:00:23.207Z,2.10
2022-10-13T15:02:50.623Z,1.40
2022-10-13T15:05:19.045Z,1.80
2022-10-13T15:07:46.084Z,1.42
2022-10-13T15:10:13.237Z,2.28
2022-10-13T15:12:40.284Z,1.30
2022-10-13T15:15:08.107Z,1.73
2022-10-13T15:17:36.994Z,2.50
2022-10-13T15:20:05.595Z,1.60
2022-10-13T15:22:32.616Z,2.00
2022-10-13T15:24:59.868Z,1.35
2022-10-13T15:27:26.886Z,1.52
2022-10-13T15:29:54.105Z,1.80
2022-10-13T15:32:21.870Z,1.30
2022-10-13T15:34:54.809Z,1.15
2022-10-13T15:37:22.061Z,2.22
2022-10-13T15:39:53.171Z,1.85
2022-10-13T15:42:22.186Z,1.63
2022-10-13T15:45:09.851Z,2.47
2022-10-13T15:47:36.666Z,2.03
2022-10-13T15:50:04.241Z,1.52
2022-10-13T15:52:34.923Z,2.20
2022-10-13T15:55:02.530Z,1.42
2022-10-13T15:57:31.135Z,2.15
2022-10-13T15:59:58.217Z,1.40
2022-10-13T16:02:25.919Z,2.58
2022-10-13T16:04:53.103Z,2.05
2022-10-13T16:07:20.121Z,2.05
2022-10-13T16:09:47.513Z,1.92
2022-10-13T16:12:14.677Z,2.20
2022-10-13T16:14:41.955Z,1.63
2022-10-13T16:17:09.064Z,2.25
2022-10-13T16:19:36.279Z,2.10
2022-10-13T16:22:03.457Z,1.98
2022-10-13T16:24:30.653Z,1.77
2022-10-13T16:26:57.995Z,2.88
2022-10-13T16:29:25.494Z,2.22
2022-10-13T16:31:52.656Z,2.53
2022-10-13T16:34:22.828Z,2.63
2022-10-13T16:36:50.634Z,2.03
2022-10-13T16:39:17.791Z,1.73
2022-10-13T16:41:45.181Z,2.25
2022-10-13T16:44:12.370Z,1.85
2022-10-13T16:46:40.359Z,2.20
2022-10-13T16:49:10.183Z,1.75
2022-10-13T16:51:37.567Z,2.60
2022-10-13T16:54:05.458Z,1.58
2022-10-13T16:56:33.161Z,1.65
2022-10-13T16:59:03.188Z,2.17
2022-10-13T17:01:31.770Z,2.42
2022-10-13T17:03:59.519Z,2.20
2022-10-13T17:06:28.798Z,2.15
2022-10-13T17:08:57.950Z,1.58
2022-10-13T17:11:30.609Z,1.98
2022-10-13T17:13:59.177Z,1.55
2022-10-13T17:16:31.357Z,1.45
2022-10-13T17:18:58.552Z,2.00
2022-10-13T17:21:33.251Z,1.60
2022-10-13T17:24:00.557Z,1.38
2022-10-13T17:26:27.647Z,2.05
2022-10-13T17:28:55.049Z,2.15
2022-10-13T17:31:23.833Z,1.75
2022-10-13T17:33:51.859Z,2.13
2022-10-13T17:36:22.815Z,1.45
2022-10-13T17:38:51.223Z,1.80
2022-10-13T17:41:19.322Z,2.03
2022-10-13T17:43:50.873Z,1.75
2022-10-13T17:46:38.992Z,1.90
2022-10-13T17:49:08.145Z,1.73
2022-10-13T17:51:35.585Z,1.98
2022-10-13T17:54:02.910Z,1.90
2022-10-13T17:56:30.221Z,1.25
2022-10-13T17:58:57.586Z,2.10
2022-10-13T18:01:30.435Z,1.35
2022-10-13T18:08:22.693Z,1.50
2022-10-13T18:11:08.018Z,1.90
2022-10-13T18:13:36.105Z,1.60
2022-10-13T18:16:20.701Z,1.50
2022-10-13T18:18:50.155Z,1.73
2022-10-13T18:21:22.454Z,1.35
2022-10-13T18:23:53.696Z,1.38
2022-10-13T18:26:21.250Z,1.48
2022-10-13T18:28:49.785Z,1.35
2022-10-13T18:31:28.154Z,1.55
2022-10-13T18:33:59.330Z,1.90
2022-10-13T18:36:34.400Z,1.45
2022-10-13T18:39:14.752Z,1.73
2022-10-13T18:41:45.496Z,2.15
2022-10-13T18:44:12.923Z,2.05
2022-10-13T18:46:41.023Z,2.17
2022-10-13T18:49:12.447Z,2.42
2022-10-13T18:51:42.511Z,2.92
2022-10-13T18:54:09.967Z,2.83
2022-10-13T18:56:37.620Z,1.95
2022-10-13T18:59:06.099Z,2.47
2022-10-13T19:01:35.291Z,2.58
2022-10-13T19:04:02.685Z,2.50
2022-10-13T19:06:32.318Z,3.22
2022-10-13T19:09:01.978Z,3.35
2022-10-13T19:11:30.542Z,3.20
2022-10-13T19:13:59.003Z,3.65
2022-10-13T19:16:28.881Z,3.25
2022-10-13T19:18:56.183Z,2.80
2022-10-13T19:21:23.862Z,2.78
2022-10-13T19:23:51.111Z,2.38
2022-10-13T19:26:24.039Z,2.55
2022-10-13T19:29:00.675Z,2.30
2022-10-13T19:31:29.843Z,2.17
2022-10-13T19:33:57.013Z,2.35
2022-10-13T19:36:33.926Z,1.92
2022-10-13T19:39:03.269Z,1.88
2022-10-13T19:41:31.863Z,2.35
2022-10-13T19:43:59.755Z,1.85
2022-10-13T19:46:35.350Z,2.13
2022-10-13T19:49:03.618Z,2.10
2022-10-13T19:51:30.694Z,1.48
2022-10-13T19:53:57.872Z,1.92
2022-10-13T19:56:27.864Z,2.03
2022-10-13T19:58:55.203Z,1.77
2022-10-13T20:01:22.623Z,1.50
2022-10-13T20:03:49.802Z,1.85
2022-10-13T20:06:18.020Z,1.40
2022-10-13T20:08:45.659Z,1.55
2022-10-13T20:11:23.771Z,1.67
2022-10-13T20:13:52.958Z,1.95
2022-10-13T20:16:23.798Z,1.60
2022-10-13T20:18:56.743Z,1.88
2022-10-13T20:21:25.336Z,2.15
2022-10-13T20:23:52.866Z,1.33
2022-10-13T20:26:20.530Z,1.13
2022-10-13T20:28:49.095Z,1.00
2022-10-13T20:31:18.472Z,1.25
2022-10-13T20:33:47.067Z,2.05
2022-10-13T20:36:16.807Z,1.33
2022-10-13T20:38:43.975Z,1.42
2022-10-13T20:41:19.636Z,1.65
2022-10-13T20:43:48.181Z,1.38
2022-10-13T20:46:16.863Z,1.67
2022-10-13T20:49:09.323Z,1.20
2022-10-13T20:51:31.745Z,1.70
2022-10-13T20:53:58.827Z,1.80
2022-10-13T20:56:26.736Z,1.33
2022-10-13T20:58:54.492Z,1.30
2022-10-13T21:01:23.044Z,1.35
2022-10-13T21:03:54.052Z,1.73
2022-10-13T21:06:23.314Z,1.52
2022-10-13T21:08:50.624Z,1.65
2022-10-13T21:11:18.915Z,1.42
2022-10-13T21:13:46.945Z,1.58
2022-10-13T21:16:19.568Z,1.42
2022-10-13T21:18:49.134Z,1.88
2022-10-13T21:21:22.182Z,1.70
2022-10-13T21:23:56.421Z,1.52
2022-10-13T21:26:24.520Z,1.30
2022-10-13T21:28:52.295Z,1.63
2022-10-13T21:31:21.555Z,1.33
2022-10-13T21:33:49.468Z,2.08
2022-10-13T21:36:20.702Z,1.98
2022-10-13T21:38:51.776Z,1.58
2022-10-13T21:41:19.028Z,1.52
2022-10-13T21:43:46.028Z,1.85
2022-10-13T21:46:17.831Z,1.83
2022-10-13T21:48:46.037Z,2.00
2022-10-13T21:51:17.409Z,1.45
2022-10-13T21:53:49.365Z,2.00
2022-10-13T21:56:16.516Z,1.90
2022-10-13T21:58:43.531Z,1.60
2022-10-13T22:01:11.014Z,1.30
2022-10-13T22:03:38.127Z,1.30
2022-10-13T22:06:17.614Z,1.08
2022-10-13T22:08:47.702Z,1.00
2022-10-13T22:11:21.158Z,1.38
2022-10-13T22:13:48.336Z,1.42
2022-10-13T22:16:22.593Z,1.50
2022-10-13T22:18:53.064Z,1.03
2022-10-13T22:21:23.062Z,1.65
2022-10-13T22:23:50.500Z,0.73
2022-10-13T22:26:18.756Z,1.13
2022-10-13T22:28:48.365Z,1.65
2022-10-13T22:31:15.613Z,1.50
2022-10-13T22:33:43.369Z,1.35
2022-10-13T22:36:17.034Z,2.10
2022-10-13T22:38:48.630Z,1.98
2022-10-13T22:41:17.292Z,1.45
2022-10-13T22:43:44.965Z,1.73
2022-10-13T22:46:13.882Z,1.35
2022-10-13T22:48:41.844Z,1.58
2022-10-13T22:51:22.488Z,1.35
2022-10-13T22:53:50.276Z,1.50
2022-10-13T22:56:24.651Z,1.30
2022-10-13T22:59:03.988Z,1.77
2022-10-13T23:01:31.705Z,0.90
2022-10-13T23:03:59.502Z,1.15
2022-10-13T23:06:30.253Z,1.38
2022-10-13T23:09:01.187Z,1.08
2022-10-13T23:11:28.473Z,0.90
2022-10-13T23:13:55.758Z,1.02
2022-10-13T23:16:24.969Z,1.05
2022-10-13T23:18:52.448Z,0.80
2022-10-13T23:21:26.134Z,1.10
2022-10-13T23:24:04.588Z,1.10
2022-10-13T23:26:34.403Z,0.82
2022-10-13T23:29:01.751Z,1.42
2022-10-13T23:31:29.311Z,1.40
2022-10-13T23:33:57.274Z,1.70
2022-10-13T23:36:27.014Z,1.30
2022-10-13T23:38:58.652Z,1.58
2022-10-13T23:41:26.851Z,1.38
2022-10-13T23:43:54.022Z,1.58
2022-10-13T23:46:21.628Z,1.02
2022-10-13T23:48:48.701Z,1.60
2022-10-13T23:51:18.674Z,1.35
2022-10-13T23:53:46.401Z,1.20
2022-10-13T23:56:15.658Z,0.90
2022-10-13T23:58:44.337Z,1.10
